createdAt,value
2022-12-27T00:01:53.369Z,58.39
2022-12-27T00:04:20.136Z,58.66
2022-12-27T00:06:47.308Z,58.75
2022-12-27T00:09:14.027Z,58.49
2022-12-27T00:11:41.156Z,58.71
2022-12-27T00:14:07.917Z,58.28
2022-12-27T00:16:34.991Z,58.74
2022-12-27T00:19:01.861Z,58.40
2022-12-27T00:21:28.973Z,58.50
2022-12-27T00:23:56.502Z,58.49
2022-12-27T00:26:26.493Z,58.37
2022-12-27T00:28:53.508Z,58.58
2022-12-27T00:31:21.400Z,58.61
2022-12-27T00:33:49.563Z,58.43
2022-12-27T00:36:18.732Z,58.52
2022-12-27T00:38:45.554Z,58.76
2022-12-27T00:41:12.631Z,58.76
2022-12-27T00:43:39.454Z,58.57
2022-12-27T00:46:06.824Z,58.81
2022-12-27T00:48:33.823Z,58.56
2022-12-27T00:51:03.330Z,58.78
2022-12-27T00:53:30.277Z,59.04
2022-12-27T00:55:57.424Z,58.78
2022-12-27T00:58:24.414Z,58.81
2022-12-27T01:00:51.589Z,58.74
2022-12-27T01:03:18.754Z,59.06
2022-12-27T01:05:45.985Z,58.59
2022-12-27T01:08:12.761Z,59.04
2022-12-27T01:10:40.633Z,58.88
2022-12-27T01:13:07.691Z,58.79
2022-12-27T01:15:34.728Z,58.93
2022-12-27T01:18:01.451Z,59.11
2022-12-27T01:20:28.452Z,59.09
2022-12-27T01:22:55.360Z,58.93
2022-12-27T01:25:22.390Z,58.69
2022-12-27T01:27:49.117Z,59.14
2022-12-27T01:30:16.122Z,58.73
2022-12-27T01:32:42.874Z,58.79
2022-12-27T01:35:09.908Z,58.76
2022-12-27T01:37:36.691Z,58.51
2022-12-27T01:40:04.057Z,58.85
2022-12-27T01:42:49.378Z,58.78
2022-12-27T01:45:19.581Z,58.78
2022-12-27T01:47:51.188Z,58.91
2022-12-27T01:50:27.529Z,58.94
2022-12-27T01:53:19.345Z,58.80
2022-12-27T01:56:02.314Z,59.07
2022-12-27T01:58:36.479Z,58.94
2022-12-27T02:01:10.321Z,59.20
2022-12-27T02:03:58.317Z,59.08
2022-12-27T02:06:25.796Z,58.96
2022-12-27T02:09:03.187Z,59.01
2022-12-27T02:11:50.443Z,59.24
2022-12-27T02:14:31.225Z,59.12
2022-12-27T02:16:59.167Z,59.30
2022-12-27T02:19:41.263Z,59.21
2022-12-27T02:22:14.206Z,59.19
2022-12-27T02:24:50.252Z,59.39
2022-12-27T02:27:35.519Z,58.96
2022-12-27T02:30:04.472Z,59.19
2022-12-27T02:32:45.656Z,59.48
2022-12-27T02:35:23.456Z,59.19
2022-12-27T02:38:15.716Z,59.11
2022-12-27T02:41:01.267Z,59.15
2022-12-27T02:43:46.975Z,59.15
2022-12-27T02:46:40.664Z,59.05
2022-12-27T02:50:01.993Z,59.14
2022-12-27T02:53:05.313Z,58.96
2022-12-27T02:56:28.476Z,59.15
2022-12-27T02:59:05.981Z,59.22
2022-12-27T03:01:57.586Z,59.16
2022-12-27T03:04:42.142Z,59.16
2022-12-27T03:07:26.232Z,59.37
2022-12-27T03:10:40.863Z,59.17
2022-12-27T03:13:38.579Z,59.18
2022-12-27T03:16:23.555Z,59.08
2022-12-27T03:19:12.594Z,58.83
2022-12-27T03:22:03.666Z,58.93
2022-12-27T03:24:53.848Z,58.75
2022-12-27T03:28:08.894Z,59.19
2022-12-27T03:30:55.017Z,59.10
2022-12-27T03:33:22.364Z,58.98
2022-12-27T03:36:11.320Z,59.04
2022-12-27T03:38:43.520Z,58.95
2022-12-27T03:41:30.278Z,59.16
2022-12-27T03:43:57.047Z,59.05
2022-12-27T03:46:36.671Z,59.29
2022-12-27T03:49:30.283Z,59.62
2022-12-27T03:52:11.070Z,59.10
2022-12-27T03:54:39.170Z,59.15
2022-12-27T03:57:11.558Z,58.96
2022-12-27T03:59:38.559Z,58.84
2022-12-27T04:02:05.956Z,58.66
2022-12-27T04:04:32.760Z,58.59
2022-12-27T04:06:59.886Z,58.75
2022-12-27T04:09:45.202Z,58.50
2022-12-27T04:12:30.899Z,58.31
2022-12-27T04:15:16.257Z,58.43
2022-12-27T04:18:01.900Z,58.27
2022-12-27T04:20:47.212Z,58.24
2022-12-27T04:23:32.891Z,58.24
2022-12-27T04:26:18.334Z,58.44
2022-12-27T04:29:03.943Z,58.27
2022-12-27T04:31:49.459Z,58.46
2022-12-27T04:34:34.795Z,58.34
2022-12-27T04:37:01.571Z,58.13
2022-12-27T04:39:28.599Z,57.96
2022-12-27T04:42:13.980Z,57.98
2022-12-27T04:44:59.642Z,57.86
2022-12-27T04:47:45.023Z,57.89
2022-12-27T04:50:42.869Z,57.96
2022-12-27T04:53:36.333Z,57.68
2022-12-27T04:56:04.080Z,57.65
2022-12-27T04:58:30.902Z,57.70
2022-12-27T05:01:18.606Z,57.69
2022-12-27T05:03:46.045Z,57.65
2022-12-27T05:06:13.241Z,57.72
2022-12-27T05:08:59.199Z,57.85
2022-12-27T05:11:44.783Z,57.41
2022-12-27T05:14:13.674Z,57.85
2022-12-27T05:16:42.206Z,57.76
2022-12-27T05:19:11.018Z,57.74
2022-12-27T05:22:02.027Z,57.47
2022-12-27T05:24:48.518Z,57.71
2022-12-27T05:27:15.864Z,57.60
2022-12-27T05:29:42.583Z,57.54
2022-12-27T05:32:13.352Z,57.64
2022-12-27T05:34:41.057Z,57.50
2022-12-27T05:37:08.219Z,57.77
2022-12-27T05:39:35.095Z,57.35
2022-12-27T05:42:02.299Z,57.32
2022-12-27T05:44:29.094Z,57.40
2022-12-27T05:46:56.155Z,57.48
2022-12-27T05:49:22.971Z,57.28
2022-12-27T05:51:50.073Z,57.33
2022-12-27T05:54:16.934Z,57.20
2022-12-27T05:56:43.965Z,57.30
2022-12-27T05:59:11.426Z,57.25
2022-12-27T06:01:38.496Z,57.20
2022-12-27T06:04:05.355Z,57.29
2022-12-27T06:06:33.656Z,57.20
2022-12-27T06:09:00.371Z,56.99
2022-12-27T06:11:27.409Z,57.09
2022-12-27T06:13:54.369Z,57.23
2022-12-27T06:16:21.601Z,57.13
2022-12-27T06:18:48.325Z,57.14
2022-12-27T06:21:17.462Z,56.97
2022-12-27T06:23:47.116Z,56.87
2022-12-27T06:26:18.343Z,56.90
2022-12-27T06:28:45.140Z,56.73
2022-12-27T06:31:12.232Z,56.75
2022-12-27T06:33:39.007Z,56.72
2022-12-27T06:36:10.186Z,56.78
2022-12-27T06:38:37.040Z,56.71
2022-12-27T06:41:05.067Z,56.75
2022-12-27T06:43:31.845Z,56.73
2022-12-27T06:46:00.003Z,56.95
2022-12-27T06:48:26.975Z,56.87
2022-12-27T06:50:54.161Z,56.92
2022-12-27T06:53:21.367Z,56.70
2022-12-27T06:55:48.417Z,56.72
2022-12-27T06:58:15.250Z,56.63
2022-12-27T07:00:42.486Z,56.54
2022-12-27T07:03:09.292Z,56.62
2022-12-27T07:05:36.633Z,56.58
2022-12-27T07:08:03.562Z,56.32
2022-12-27T07:10:30.760Z,56.51
2022-12-27T07:12:57.731Z,56.19
2022-12-27T07:15:24.800Z,56.12
2022-12-27T07:17:51.560Z,56.29
2022-12-27T07:20:18.816Z,55.76
2022-12-27T07:22:45.592Z,56.01
2022-12-27T07:25:12.625Z,55.97
2022-12-27T07:27:39.420Z,55.91
2022-12-27T07:30:07.235Z,55.70
2022-12-27T07:32:34.009Z,56.10
2022-12-27T07:35:01.119Z,55.83
2022-12-27T07:37:27.871Z,56.17
2022-12-27T07:39:54.891Z,56.42
2022-12-27T07:42:21.594Z,56.28
2022-12-27T07:44:48.845Z,56.36
2022-12-27T07:47:15.585Z,56.35
2022-12-27T07:49:42.635Z,56.26
2022-12-27T07:52:09.371Z,56.02
2022-12-27T07:54:36.450Z,56.27
2022-12-27T07:57:03.199Z,56.06
2022-12-27T07:59:30.258Z,56.31
2022-12-27T08:02:06.306Z,56.36
2022-12-27T08:04:35.331Z,56.05
2022-12-27T08:07:12.277Z,56.01
2022-12-27T08:09:39.796Z,55.97
2022-12-27T08:12:07.447Z,56.21
2022-12-27T08:14:34.584Z,56.11
2022-12-27T08:17:27.360Z,55.98
2022-12-27T08:19:54.804Z,56.26
2022-12-27T08:22:22.055Z,56.17
2022-12-27T08:24:49.405Z,56.49
2022-12-27T08:27:23.250Z,56.40
2022-12-27T08:29:50.328Z,56.50
2022-12-27T08:32:17.071Z,56.60
2022-12-27T08:34:44.126Z,56.58
2022-12-27T08:37:10.857Z,56.67
2022-12-27T08:39:37.900Z,56.40
2022-12-27T08:42:04.699Z,56.29
2022-12-27T08:44:31.794Z,56.29
2022-12-27T08:46:59.550Z,56.32
2022-12-27T08:49:26.684Z,55.99
2022-12-27T08:51:53.423Z,56.05
2022-12-27T08:54:20.497Z,56.03
2022-12-27T08:56:47.313Z,56.16
2022-12-27T08:59:14.323Z,56.10
2022-12-27T09:01:41.208Z,56.25
2022-12-27T09:04:08.384Z,56.15
2022-12-27T09:06:35.169Z,55.90
2022-12-27T09:09:02.197Z,55.77
2022-12-27T09:11:31.122Z,55.82
2022-12-27T09:13:59.326Z,55.79
2022-12-27T09:16:29.458Z,55.75
2022-12-27T09:18:57.695Z,55.67
2022-12-27T09:21:26.663Z,55.61
2022-12-27T09:23:54.419Z,55.78
2022-12-27T09:26:23.036Z,55.35
2022-12-27T09:28:50.270Z,55.41
2022-12-27T09:31:17.803Z,55.77
2022-12-27T09:33:45.061Z,55.84
2022-12-27T09:36:16.404Z,55.54
2022-12-27T09:38:43.850Z,55.62
2022-12-27T09:42:11.680Z,55.43
2022-12-27T09:44:22.931Z,55.21
2022-12-27T09:47:14.424Z,54.52
2022-12-27T09:49:50.832Z,54.81
2022-12-27T09:52:40.032Z,54.85
2022-12-27T09:55:19.860Z,55.01
2022-12-27T09:57:46.778Z,54.71
2022-12-27T10:00:34.329Z,54.80
2022-12-27T10:03:05.613Z,54.55
2022-12-27T10:05:34.436Z,54.41
2022-12-27T10:08:13.348Z,54.63
2022-12-27T10:10:41.865Z,54.59
2022-12-27T10:13:11.709Z,54.74
2022-12-27T10:16:01.061Z,54.46
2022-12-27T10:19:03.510Z,53.81
2022-12-27T10:21:30.677Z,54.35
2022-12-27T10:24:11.522Z,54.23
2022-12-27T10:26:38.852Z,54.15
2022-12-27T10:29:19.068Z,54.50
2022-12-27T10:31:46.182Z,54.24
2022-12-27T10:34:15.119Z,54.14
2022-12-27T10:36:42.302Z,54.07
2022-12-27T10:39:29.145Z,54.16
2022-12-27T10:41:57.756Z,54.26
2022-12-27T10:44:24.527Z,54.18
2022-12-27T10:46:55.985Z,54.21
2022-12-27T10:49:29.600Z,54.22
2022-12-27T10:52:20.412Z,53.92
2022-12-27T10:54:54.457Z,54.08
2022-12-27T10:57:33.484Z,53.93
2022-12-27T11:00:16.610Z,53.78
2022-12-27T11:02:57.345Z,53.54
2022-12-27T11:05:29.430Z,53.09
2022-12-27T11:07:56.687Z,53.33
2022-12-27T11:10:25.505Z,53.14
2022-12-27T11:13:03.567Z,53.26
2022-12-27T11:15:34.444Z,52.91
2022-12-27T11:18:19.910Z,52.73
2022-12-27T11:20:49.107Z,52.68
2022-12-27T11:23:17.324Z,52.82
2022-12-27T11:25:53.019Z,52.35
2022-12-27T11:28:23.173Z,52.59
2022-12-27T11:30:56.331Z,52.33
2022-12-27T11:33:32.358Z,52.51
2022-12-27T11:35:59.178Z,51.59
2022-12-27T11:38:30.219Z,51.88
2022-12-27T11:41:09.887Z,52.09
2022-12-27T11:44:00.882Z,51.64
2022-12-27T11:46:30.659Z,52.17
2022-12-27T11:48:58.787Z,51.55
2022-12-27T11:51:37.652Z,52.35
2022-12-27T11:54:32.674Z,52.11
2022-12-27T11:57:11.417Z,52.20
2022-12-27T11:59:41.577Z,51.78
2022-12-27T12:02:34.093Z,51.89
2022-12-27T12:05:16.640Z,50.37
2022-12-27T12:08:09.312Z,51.85
2022-12-27T12:10:36.680Z,50.94
2022-12-27T12:13:42.156Z,51.66
2022-12-27T12:16:31.396Z,51.34
2022-12-27T12:19:35.814Z,50.34
2022-12-27T12:22:06.008Z,51.46
2022-12-27T12:25:09.689Z,50.34
2022-12-27T12:27:47.591Z,51.32
2022-12-27T12:30:38.003Z,51.29
2022-12-27T12:33:14.250Z,51.13
2022-12-27T12:35:46.610Z,49.78
2022-12-27T12:38:27.031Z,50.57
2022-12-27T12:41:15.712Z,50.87
2022-12-27T12:43:56.889Z,50.52
2022-12-27T12:46:38.565Z,51.05
2022-12-27T12:49:33.487Z,50.52
2022-12-27T12:52:03.304Z,49.65
2022-12-27T12:54:42.568Z,50.53
2022-12-27T12:57:09.362Z,50.66
2022-12-27T13:00:09.304Z,50.54
2022-12-27T13:03:04.170Z,50.44
2022-12-27T13:05:52.063Z,50.71
2022-12-27T13:08:29.460Z,50.22
2022-12-27T13:11:13.204Z,50.27
2022-12-27T13:13:55.495Z,50.34
2022-12-27T13:16:29.246Z,50.12
2022-12-27T13:19:17.760Z,49.99
2022-12-27T13:22:09.227Z,49.93
2022-12-27T13:24:36.014Z,49.84
2022-12-27T13:27:13.255Z,49.66
2022-12-27T13:29:52.715Z,50.01
2022-12-27T13:32:29.903Z,49.85
2022-12-27T13:35:19.993Z,50.12
2022-12-27T13:38:12.209Z,49.84
2022-12-27T13:40:51.172Z,49.79
2022-12-27T13:43:30.554Z,49.93
2022-12-27T13:46:43.455Z,49.88
2022-12-27T13:49:19.759Z,49.77
2022-12-27T13:51:48.131Z,50.00
2022-12-27T13:54:39.607Z,50.02
2022-12-27T13:57:14.331Z,50.13
2022-12-27T14:00:09.153Z,50.05
2022-12-27T14:02:39.261Z,49.97
2022-12-27T14:05:25.489Z,50.08
2022-12-27T14:08:04.273Z,50.18
2022-12-27T14:10:55.300Z,50.04
2022-12-27T14:13:29.342Z,50.19
2022-12-27T14:16:11.939Z,50.30
2022-12-27T14:19:03.546Z,50.05
2022-12-27T14:21:45.803Z,49.82
2022-12-27T14:24:49.957Z,50.28
2022-12-27T14:27:38.897Z,49.97
2022-12-27T14:30:14.452Z,50.11
2022-12-27T14:32:49.595Z,50.36
2022-12-27T14:35:35.075Z,50.12
2022-12-27T14:38:02.063Z,49.99
2022-12-27T14:40:55.100Z,50.03
2022-12-27T14:43:40.865Z,50.28
2022-12-27T14:46:31.901Z,50.04
2022-12-27T14:49:33.909Z,49.79
2022-12-27T14:52:13.133Z,49.82
2022-12-27T14:54:49.185Z,49.92
2022-12-27T14:57:22.051Z,49.51
2022-12-27T15:00:12.416Z,49.50
2022-12-27T15:02:51.344Z,49.45
2022-12-27T15:05:30.767Z,49.88
2022-12-27T15:08:06.860Z,49.77
2022-12-27T15:10:43.258Z,49.56
2022-12-27T15:13:19.398Z,49.62
2022-12-27T15:15:52.760Z,49.55
2022-12-27T15:18:37.971Z,49.52
2022-12-27T15:21:22.740Z,49.66
2022-12-27T15:24:03.794Z,49.37
2022-12-27T15:26:45.576Z,49.42
2022-12-27T15:29:21.565Z,49.42
2022-12-27T15:32:04.806Z,49.47
2022-12-27T15:34:47.314Z,49.31
2022-12-27T15:37:45.569Z,49.29
2022-12-27T15:41:26.495Z,49.37
2022-12-27T15:47:52.821Z,49.57
2022-12-27T15:50:24.387Z,49.56
2022-12-27T15:52:53.582Z,49.54
2022-12-27T15:55:42.942Z,49.27
2022-12-27T15:58:43.905Z,49.44
2022-12-27T16:01:23.974Z,49.50
2022-12-27T16:03:59.039Z,49.50
2022-12-27T16:07:11.016Z,49.58
2022-12-27T16:09:46.669Z,49.70
2022-12-27T16:12:14.069Z,49.39
2022-12-27T16:14:42.252Z,49.79
2022-12-27T16:17:24.785Z,49.47
2022-12-27T16:20:08.382Z,49.54
2022-12-27T16:22:40.281Z,49.63
2022-12-27T16:25:24.143Z,49.61
2022-12-27T16:28:05.213Z,49.29
2022-12-27T16:31:14.715Z,49.68
2022-12-27T16:33:41.912Z,49.39
2022-12-27T16:36:11.717Z,49.44
2022-12-27T16:38:46.800Z,49.72
2022-12-27T16:41:22.701Z,49.50
2022-12-27T16:44:02.142Z,49.34
2022-12-27T16:46:47.513Z,49.69
2022-12-27T16:49:14.702Z,49.55
2022-12-27T16:52:00.664Z,49.70
2022-12-27T16:54:44.089Z,49.52
2022-12-27T16:57:29.053Z,49.49
2022-12-27T16:59:59.254Z,49.54
2022-12-27T17:02:42.240Z,49.25
2022-12-27T17:05:15.588Z,49.58
2022-12-27T17:07:43.456Z,49.27
2022-12-27T17:10:30.185Z,49.35
2022-12-27T17:12:59.737Z,49.32
2022-12-27T17:15:27.402Z,49.52
2022-12-27T17:17:55.775Z,49.25
2022-12-27T17:20:24.024Z,49.34
2022-12-27T17:22:52.661Z,49.53
2022-12-27T17:25:22.872Z,49.35
2022-12-27T17:28:04.943Z,49.45
2022-12-27T17:30:44.211Z,49.62
2022-12-27T17:33:37.597Z,49.64
2022-12-27T17:36:16.842Z,49.32
2022-12-27T17:38:49.555Z,49.42
2022-12-27T17:41:45.884Z,49.29
2022-12-27T17:44:40.314Z,49.14
2022-12-27T17:47:39.906Z,49.04
2022-12-27T17:50:13.010Z,49.17
2022-12-27T17:52:58.839Z,49.36
2022-12-27T17:55:45.780Z,49.22
2022-12-27T17:58:14.456Z,49.26
2022-12-27T18:00:57.365Z,49.23
2022-12-27T18:03:32.718Z,49.37
2022-12-27T18:05:59.589Z,49.43
2022-12-27T18:08:29.592Z,49.52
2022-12-27T18:10:57.375Z,49.66
2022-12-27T18:13:25.721Z,49.56
2022-12-27T18:15:52.834Z,49.28
2022-12-27T18:18:33.407Z,48.95
2022-12-27T18:21:01.855Z,49.07
2022-12-27T18:23:28.980Z,49.38
2022-12-27T18:26:16.031Z,49.35
2022-12-27T18:28:43.384Z,49.51
2022-12-27T18:31:29.727Z,49.19
2022-12-27T18:33:57.982Z,49.23
2022-12-27T18:36:30.483Z,49.45
2022-12-27T18:38:59.625Z,48.99
2022-12-27T18:41:26.632Z,49.45
2022-12-27T18:43:59.500Z,49.26
2022-12-27T18:46:36.429Z,49.33
2022-12-27T18:49:03.732Z,49.17
2022-12-27T18:51:35.105Z,49.20
2022-12-27T18:54:02.374Z,49.32
2022-12-27T18:56:32.572Z,49.46
2022-12-27T18:59:05.841Z,49.77
2022-12-27T19:01:41.019Z,49.39
2022-12-27T19:04:14.666Z,49.42
2022-12-27T19:06:42.580Z,49.76
2022-12-27T19:09:14.274Z,49.51
2022-12-27T19:11:41.185Z,49.78
2022-12-27T19:14:12.015Z,50.03
2022-12-27T19:16:38.842Z,50.03
2022-12-27T19:19:08.520Z,49.88
2022-12-27T19:21:38.972Z,49.78
2022-12-27T19:24:38.698Z,49.73
2022-12-27T19:27:16.826Z,50.13
2022-12-27T19:29:51.097Z,49.90
2022-12-27T19:32:23.200Z,50.01
2022-12-27T19:34:52.092Z,49.94
2022-12-27T19:37:19.401Z,50.11
2022-12-27T19:39:47.135Z,50.07
2022-12-27T19:42:16.507Z,50.32
2022-12-27T19:44:43.658Z,49.97
2022-12-27T19:47:12.793Z,50.04
2022-12-27T19:49:42.625Z,50.22
2022-12-27T19:52:16.874Z,50.25
2022-12-27T19:54:43.996Z,50.16
2022-12-27T19:57:12.488Z,50.10
2022-12-27T19:59:40.005Z,50.07
2022-12-27T20:02:07.401Z,49.87
2022-12-27T20:04:35.032Z,50.19
2022-12-27T20:07:02.077Z,49.89
2022-12-27T20:09:44.074Z,49.98
2022-12-27T20:12:12.016Z,50.40
2022-12-27T20:14:39.303Z,49.92
2022-12-27T20:17:06.200Z,50.19
2022-12-27T20:19:33.772Z,50.04
2022-12-27T20:22:00.902Z,50.19
2022-12-27T20:24:28.781Z,50.17
2022-12-27T20:26:58.995Z,50.53
2022-12-27T20:29:27.540Z,50.49
2022-12-27T20:31:57.280Z,50.32
2022-12-27T20:34:24.807Z,50.30
2022-12-27T20:36:55.512Z,50.19
2022-12-27T20:39:22.891Z,50.27
2022-12-27T20:41:49.716Z,50.26
2022-12-27T20:44:16.971Z,50.34
2022-12-27T20:46:44.409Z,50.16
2022-12-27T20:49:12.211Z,50.50
2022-12-27T20:51:42.292Z,50.50
2022-12-27T20:54:10.354Z,50.59
2022-12-27T20:56:37.127Z,50.53
2022-12-27T20:59:04.511Z,50.51
2022-12-27T21:01:31.845Z,50.37
2022-12-27T21:03:59.093Z,50.51
2022-12-27T21:06:27.450Z,50.62
2022-12-27T21:08:57.547Z,50.67
2022-12-27T21:11:27.891Z,50.24
2022-12-27T21:13:55.077Z,50.38
2022-12-27T21:16:23.400Z,50.49
2022-12-27T21:18:50.615Z,50.45
2022-12-27T21:21:19.889Z,50.30
2022-12-27T21:23:47.370Z,50.59
2022-12-27T21:26:19.584Z,50.63
2022-12-27T21:28:46.962Z,50.36
2022-12-27T21:31:14.723Z,50.47
2022-12-27T21:33:42.153Z,50.53
2022-12-27T21:36:16.020Z,50.35
2022-12-27T21:38:43.217Z,50.37
2022-12-27T21:41:18.238Z,50.38
2022-12-27T21:43:45.350Z,50.76
2022-12-27T21:46:18.588Z,50.58
2022-12-27T21:48:46.056Z,50.58
2022-12-27T21:51:14.289Z,50.56
2022-12-27T21:53:41.614Z,50.38
2022-12-27T21:56:08.554Z,50.71
2022-12-27T21:58:36.736Z,50.57
2022-12-27T22:01:14.578Z,50.49
2022-12-27T22:03:43.432Z,50.42
2022-12-27T22:06:16.396Z,50.49
2022-12-27T22:08:44.544Z,50.73
2022-12-27T22:11:11.355Z,50.86
2022-12-27T22:13:38.579Z,50.80
2022-12-27T22:16:06.928Z,50.66
2022-12-27T22:18:37.720Z,50.77
2022-12-27T22:21:06.016Z,50.83
2022-12-27T22:23:37.570Z,50.41
2022-12-27T22:26:05.223Z,50.61
2022-12-27T22:28:32.332Z,50.73
2022-12-27T22:30:59.196Z,50.83
2022-12-27T22:33:26.319Z,50.93
2022-12-27T22:35:53.125Z,50.74
2022-12-27T22:38:20.228Z,50.68
2022-12-27T22:40:47.125Z,50.83
2022-12-27T22:43:14.378Z,50.67
2022-12-27T22:45:42.442Z,51.10
2022-12-27T22:48:09.691Z,51.03
2022-12-27T22:50:37.856Z,50.94
2022-12-27T22:53:05.098Z,50.91
2022-12-27T22:55:31.870Z,50.73
2022-12-27T22:57:58.961Z,50.65
2022-12-27T23:00:25.699Z,50.84
2022-12-27T23:02:52.779Z,50.91
2022-12-27T23:05:19.657Z,50.83
2022-12-27T23:08:04.061Z,50.71
2022-12-27T23:10:33.585Z,51.06
2022-12-27T23:13:00.651Z,50.85
2022-12-27T23:15:27.478Z,50.79
2022-12-27T23:17:54.547Z,50.94
2022-12-27T23:20:21.315Z,50.84
2022-12-27T23:22:48.455Z,50.94
2022-12-27T23:25:15.236Z,50.91
2022-12-27T23:27:42.255Z,50.78
2022-12-27T23:30:09.766Z,50.84
2022-12-27T23:32:36.827Z,50.89
2022-12-27T23:35:03.755Z,50.83
2022-12-27T23:37:30.758Z,50.81
2022-12-27T23:39:57.463Z,50.95
2022-12-27T23:42:24.565Z,50.92
2022-12-27T23:44:52.245Z,51.22
2022-12-27T23:47:19.394Z,50.85
2022-12-27T23:49:46.203Z,51.19
2022-12-27T23:52:13.290Z,51.06
2022-12-27T23:54:40.053Z,51.08
2022-12-27T23:57:22.287Z,51.00
2022-12-27T23:59:51.244Z,51.06
